sensor_id;sensor_type;location;lat;lon;timestamp;P1;durP1;ratioP1;P2;durP2;ratioP2
44304;SDS011;30019;50.576;8.568;2023-02-28T00:02:17;4.85;;;3.30;;
44304;SDS011;30019;50.576;8.568;2023-02-28T00:04:43;6.50;;;2.90;;
44304;SDS011;30019;50.576;8.568;2023-02-28T00:07:08;5.10;;;3.12;;
44304;SDS011;30019;50.576;8.568;2023-02-28T00:09:34;3.97;;;3.10;;
44304;SDS011;30019;50.576;8.568;2023-02-28T00:12:00;4.70;;;3.10;;
44304;SDS011;30019;50.576;8.568;2023-02-28T00:14:29;6.55;;;3.20;;
44304;SDS011;30019;50.576;8.568;2023-02-28T00:16:55;3.12;;;2.80;;
44304;SDS011;30019;50.576;8.568;2023-02-28T00:19:20;2.95;;;2.55;;
44304;SDS011;30019;50.576;8.568;2023-02-28T00:21:46;4.75;;;3.22;;
44304;SDS011;30019;50.576;8.568;2023-02-28T00:24:11;5.43;;;2.90;;
44304;SDS011;30019;50.576;8.568;2023-02-28T00:26:37;3.90;;;3.05;;
44304;SDS011;30019;50.576;8.568;2023-02-28T00:29:02;6.70;;;3.42;;
44304;SDS011;30019;50.576;8.568;2023-02-28T00:31:28;5.07;;;2.80;;
44304;SDS011;30019;50.576;8.568;2023-02-28T00:33:53;5.80;;;2.90;;
44304;SDS011;30019;50.576;8.568;2023-02-28T00:36:19;5.62;;;3.00;;
44304;SDS011;30019;50.576;8.568;2023-02-28T00:38:44;5.20;;;3.30;;
44304;SDS011;30019;50.576;8.568;2023-02-28T00:41:10;4.93;;;3.00;;
44304;SDS011;30019;50.576;8.568;2023-02-28T00:43:36;6.53;;;3.60;;
44304;SDS011;30019;50.576;8.568;2023-02-28T00:46:03;4.82;;;2.90;;
44304;SDS011;30019;50.576;8.568;2023-02-28T00:48:29;3.45;;;2.72;;
44304;SDS011;30019;50.576;8.568;2023-02-28T00:50:55;2.87;;;1.92;;
44304;SDS011;30019;50.576;8.568;2023-02-28T00:53:20;5.50;;;3.17;;
44304;SDS011;30019;50.576;8.568;2023-02-28T00:55:47;3.83;;;3.10;;
44304;SDS011;30019;50.576;8.568;2023-02-28T00:58:13;5.95;;;2.47;;
44304;SDS011;30019;50.576;8.568;2023-02-28T01:00:38;5.30;;;2.83;;
44304;SDS011;30019;50.576;8.568;2023-02-28T01:03:04;4.87;;;3.53;;
44304;SDS011;30019;50.576;8.568;2023-02-28T01:05:30;5.68;;;3.45;;
44304;SDS011;30019;50.576;8.568;2023-02-28T01:07:55;5.47;;;3.25;;
44304;SDS011;30019;50.576;8.568;2023-02-28T01:10:21;4.03;;;2.97;;
44304;SDS011;30019;50.576;8.568;2023-02-28T01:12:46;5.62;;;2.90;;
44304;SDS011;30019;50.576;8.568;2023-02-28T01:15:12;3.80;;;2.95;;
44304;SDS011;30019;50.576;8.568;2023-02-28T01:17:37;6.80;;;3.28;;
44304;SDS011;30019;50.576;8.568;2023-02-28T01:20:03;5.57;;;3.10;;
44304;SDS011;30019;50.576;8.568;2023-02-28T01:22:29;3.17;;;2.58;;
44304;SDS011;30019;50.576;8.568;2023-02-28T01:24:54;4.55;;;3.55;;
44304;SDS011;30019;50.576;8.568;2023-02-28T01:27:20;7.78;;;3.28;;
44304;SDS011;30019;50.576;8.568;2023-02-28T01:29:46;4.55;;;3.20;;
44304;SDS011;30019;50.576;8.568;2023-02-28T01:32:11;4.15;;;3.25;;
44304;SDS011;30019;50.576;8.568;2023-02-28T01:34:37;5.53;;;3.33;;
44304;SDS011;30019;50.576;8.568;2023-02-28T01:37:02;4.60;;;3.10;;
44304;SDS011;30019;50.576;8.568;2023-02-28T01:39:28;3.65;;;3.10;;
44304;SDS011;30019;50.576;8.568;2023-02-28T01:41:54;4.55;;;3.03;;
44304;SDS011;30019;50.576;8.568;2023-02-28T01:47:25;6.32;;;3.22;;
44304;SDS011;30019;50.576;8.568;2023-02-28T01:49:54;3.80;;;3.00;;
44304;SDS011;30019;50.576;8.568;2023-02-28T01:52:20;4.47;;;3.42;;
44304;SDS011;30019;50.576;8.568;2023-02-28T01:54:57;4.18;;;3.42;;
44304;SDS011;30019;50.576;8.568;2023-02-28T01:57:28;6.70;;;3.72;;
44304;SDS011;30019;50.576;8.568;2023-02-28T02:00:03;7.03;;;3.03;;
44304;SDS011;30019;50.576;8.568;2023-02-28T02:02:32;6.47;;;3.62;;
44304;SDS011;30019;50.576;8.568;2023-02-28T02:05:00;5.62;;;3.10;;
44304;SDS011;30019;50.576;8.568;2023-02-28T02:07:34;5.05;;;3.67;;
44304;SDS011;30019;50.576;8.568;2023-02-28T02:10:10;4.65;;;3.37;;
44304;SDS011;30019;50.576;8.568;2023-02-28T02:15:44;5.90;;;3.60;;
44304;SDS011;30019;50.576;8.568;2023-02-28T02:18:27;5.97;;;3.80;;
44304;SDS011;30019;50.576;8.568;2023-02-28T02:21:13;6.03;;;4.07;;
44304;SDS011;30019;50.576;8.568;2023-02-28T02:26:26;5.32;;;2.97;;
44304;SDS011;30019;50.576;8.568;2023-02-28T02:32:08;5.62;;;4.00;;
44304;SDS011;30019;50.576;8.568;2023-02-28T02:45:52;7.00;;;4.13;;
44304;SDS011;30019;50.576;8.568;2023-02-28T02:48:27;5.72;;;3.87;;
44304;SDS011;30019;50.576;8.568;2023-02-28T02:50:58;5.85;;;3.70;;
44304;SDS011;30019;50.576;8.568;2023-02-28T02:53:30;5.55;;;4.10;;
44304;SDS011;30019;50.576;8.568;2023-02-28T02:56:03;6.82;;;4.35;;
44304;SDS011;30019;50.576;8.568;2023-02-28T02:58:32;8.13;;;4.60;;
44304;SDS011;30019;50.576;8.568;2023-02-28T03:01:07;7.65;;;4.75;;
44304;SDS011;30019;50.576;8.568;2023-02-28T03:03:35;7.05;;;4.05;;
44304;SDS011;30019;50.576;8.568;2023-02-28T03:06:02;8.02;;;4.25;;
44304;SDS011;30019;50.576;8.568;2023-02-28T03:08:29;7.62;;;5.03;;
44304;SDS011;30019;50.576;8.568;2023-02-28T03:10:59;5.62;;;3.92;;
44304;SDS011;30019;50.576;8.568;2023-02-28T03:13:34;9.82;;;4.75;;
44304;SDS011;30019;50.576;8.568;2023-02-28T03:16:29;4.12;;;3.40;;
44304;SDS011;30019;50.576;8.568;2023-02-28T03:19:25;7.55;;;4.40;;
44304;SDS011;30019;50.576;8.568;2023-02-28T03:22:05;7.12;;;5.37;;
44304;SDS011;30019;50.576;8.568;2023-02-28T03:27:58;9.30;;;4.62;;
44304;SDS011;30019;50.576;8.568;2023-02-28T03:33:03;6.80;;;4.53;;
44304;SDS011;30019;50.576;8.568;2023-02-28T03:35:36;7.70;;;4.20;;
44304;SDS011;30019;50.576;8.568;2023-02-28T03:38:23;7.72;;;4.32;;
44304;SDS011;30019;50.576;8.568;2023-02-28T03:41:13;5.62;;;3.97;;
44304;SDS011;30019;50.576;8.568;2023-02-28T03:44:05;10.65;;;4.70;;
44304;SDS011;30019;50.576;8.568;2023-02-28T03:47:07;9.90;;;3.97;;
44304;SDS011;30019;50.576;8.568;2023-02-28T03:49:54;6.95;;;4.37;;
44304;SDS011;30019;50.576;8.568;2023-02-28T03:52:22;6.12;;;4.20;;
44304;SDS011;30019;50.576;8.568;2023-02-28T03:54:52;6.18;;;4.10;;
44304;SDS011;30019;50.576;8.568;2023-02-28T04:00:08;5.95;;;4.43;;
44304;SDS011;30019;50.576;8.568;2023-02-28T04:02:46;5.43;;;4.15;;
44304;SDS011;30019;50.576;8.568;2023-02-28T04:05:17;5.70;;;3.97;;
44304;SDS011;30019;50.576;8.568;2023-02-28T04:07:44;6.07;;;3.72;;
44304;SDS011;30019;50.576;8.568;2023-02-28T04:10:09;6.35;;;3.80;;
44304;SDS011;30019;50.576;8.568;2023-02-28T04:12:36;5.57;;;3.83;;
44304;SDS011;30019;50.576;8.568;2023-02-28T04:15:02;4.45;;;3.60;;
44304;SDS011;30019;50.576;8.568;2023-02-28T04:17:28;7.05;;;3.90;;
44304;SDS011;30019;50.576;8.568;2023-02-28T04:19:53;6.55;;;4.20;;
44304;SDS011;30019;50.576;8.568;2023-02-28T04:22:21;4.05;;;3.65;;
44304;SDS011;30019;50.576;8.568;2023-02-28T04:24:47;6.32;;;4.03;;
44304;SDS011;30019;50.576;8.568;2023-02-28T04:27:12;5.18;;;3.72;;
44304;SDS011;30019;50.576;8.568;2023-02-28T04:29:40;6.78;;;4.68;;
44304;SDS011;30019;50.576;8.568;2023-02-28T04:32:09;5.68;;;3.60;;
44304;SDS011;30019;50.576;8.568;2023-02-28T04:34:35;5.87;;;3.83;;
44304;SDS011;30019;50.576;8.568;2023-02-28T04:37:01;9.13;;;4.15;;
44304;SDS011;30019;50.576;8.568;2023-02-28T04:39:28;5.60;;;3.92;;
44304;SDS011;30019;50.576;8.568;2023-02-28T04:41:54;7.97;;;4.18;;
44304;SDS011;30019;50.576;8.568;2023-02-28T04:44:20;5.28;;;4.00;;
44304;SDS011;30019;50.576;8.568;2023-02-28T04:46:47;4.50;;;3.40;;
44304;SDS011;30019;50.576;8.568;2023-02-28T04:49:13;5.30;;;3.85;;
44304;SDS011;30019;50.576;8.568;2023-02-28T04:51:40;6.25;;;3.97;;
44304;SDS011;30019;50.576;8.568;2023-02-28T04:54:06;7.78;;;3.92;;
44304;SDS011;30019;50.576;8.568;2023-02-28T04:56:32;4.57;;;4.07;;
44304;SDS011;30019;50.576;8.568;2023-02-28T04:58:57;7.45;;;3.97;;
44304;SDS011;30019;50.576;8.568;2023-02-28T05:03:51;4.87;;;3.45;;
44304;SDS011;30019;50.576;8.568;2023-02-28T05:06:18;5.93;;;3.70;;
44304;SDS011;30019;50.576;8.568;2023-02-28T05:08:45;6.30;;;4.07;;
44304;SDS011;30019;50.576;8.568;2023-02-28T05:11:18;6.55;;;3.70;;
44304;SDS011;30019;50.576;8.568;2023-02-28T05:13:45;6.05;;;3.92;;
44304;SDS011;30019;50.576;8.568;2023-02-28T05:16:12;4.68;;;3.55;;
44304;SDS011;30019;50.576;8.568;2023-02-28T05:18:38;4.85;;;3.47;;
44304;SDS011;30019;50.576;8.568;2023-02-28T05:21:03;4.18;;;3.50;;
44304;SDS011;30019;50.576;8.568;2023-02-28T05:23:29;3.62;;;3.12;;
44304;SDS011;30019;50.576;8.568;2023-02-28T05:25:55;5.57;;;3.70;;
44304;SDS011;30019;50.576;8.568;2023-02-28T05:28:20;4.22;;;3.40;;
44304;SDS011;30019;50.576;8.568;2023-02-28T05:30:46;4.72;;;3.78;;
44304;SDS011;30019;50.576;8.568;2023-02-28T05:33:12;4.93;;;3.60;;
44304;SDS011;30019;50.576;8.568;2023-02-28T05:35:41;4.28;;;2.92;;
44304;SDS011;30019;50.576;8.568;2023-02-28T05:38:07;5.35;;;3.30;;
44304;SDS011;30019;50.576;8.568;2023-02-28T05:40:33;6.37;;;3.30;;
44304;SDS011;30019;50.576;8.568;2023-02-28T05:42:59;6.32;;;3.87;;
44304;SDS011;30019;50.576;8.568;2023-02-28T05:45:24;4.62;;;3.30;;
44304;SDS011;30019;50.576;8.568;2023-02-28T05:47:53;4.72;;;3.85;;
44304;SDS011;30019;50.576;8.568;2023-02-28T05:50:19;5.65;;;3.90;;
44304;SDS011;30019;50.576;8.568;2023-02-28T05:52:48;7.93;;;3.70;;
44304;SDS011;30019;50.576;8.568;2023-02-28T05:55:17;7.57;;;3.50;;
44304;SDS011;30019;50.576;8.568;2023-02-28T05:57:43;7.72;;;3.37;;
44304;SDS011;30019;50.576;8.568;2023-02-28T06:00:09;7.72;;;3.53;;
44304;SDS011;30019;50.576;8.568;2023-02-28T06:02:35;4.35;;;3.42;;
44304;SDS011;30019;50.576;8.568;2023-02-28T06:05:13;6.03;;;4.10;;
44304;SDS011;30019;50.576;8.568;2023-02-28T06:07:40;5.00;;;3.65;;
44304;SDS011;30019;50.576;8.568;2023-02-28T06:10:06;4.75;;;3.42;;
44304;SDS011;30019;50.576;8.568;2023-02-28T06:12:32;5.97;;;3.50;;
44304;SDS011;30019;50.576;8.568;2023-02-28T06:14:57;5.25;;;3.65;;
44304;SDS011;30019;50.576;8.568;2023-02-28T06:17:23;5.25;;;3.45;;
44304;SDS011;30019;50.576;8.568;2023-02-28T06:19:48;5.60;;;2.67;;
44304;SDS011;30019;50.576;8.568;2023-02-28T06:22:14;4.75;;;3.55;;
44304;SDS011;30019;50.576;8.568;2023-02-28T06:24:40;9.52;;;4.05;;
44304;SDS011;30019;50.576;8.568;2023-02-28T06:27:05;4.40;;;3.15;;
44304;SDS011;30019;50.576;8.568;2023-02-28T06:29:31;4.97;;;3.28;;
44304;SDS011;30019;50.576;8.568;2023-02-28T06:31:57;5.93;;;3.03;;
44304;SDS011;30019;50.576;8.568;2023-02-28T06:34:23;5.78;;;3.00;;
44304;SDS011;30019;50.576;8.568;2023-02-28T06:36:49;6.65;;;3.50;;
44304;SDS011;30019;50.576;8.568;2023-02-28T06:39:16;7.62;;;3.22;;
44304;SDS011;30019;50.576;8.568;2023-02-28T06:41:42;5.00;;;2.97;;
44304;SDS011;30019;50.576;8.568;2023-02-28T06:44:14;4.70;;;3.60;;
44304;SDS011;30019;50.576;8.568;2023-02-28T06:46:41;5.53;;;3.17;;
44304;SDS011;30019;50.576;8.568;2023-02-28T06:49:08;4.40;;;3.47;;
44304;SDS011;30019;50.576;8.568;2023-02-28T06:51:35;5.57;;;2.85;;
44304;SDS011;30019;50.576;8.568;2023-02-28T06:54:02;5.53;;;3.00;;
44304;SDS011;30019;50.576;8.568;2023-02-28T06:56:27;8.10;;;3.30;;
44304;SDS011;30019;50.576;8.568;2023-02-28T06:58:53;8.98;;;3.42;;
44304;SDS011;30019;50.576;8.568;2023-02-28T07:01:19;4.40;;;3.95;;
44304;SDS011;30019;50.576;8.568;2023-02-28T07:03:45;4.50;;;2.75;;
44304;SDS011;30019;50.576;8.568;2023-02-28T07:06:11;6.05;;;3.67;;
44304;SDS011;30019;50.576;8.568;2023-02-28T07:08:37;8.07;;;3.12;;
44304;SDS011;30019;50.576;8.568;2023-02-28T07:11:05;2.75;;;2.33;;
44304;SDS011;30019;50.576;8.568;2023-02-28T07:13:31;3.53;;;2.12;;
44304;SDS011;30019;50.576;8.568;2023-02-28T07:15:57;5.97;;;3.05;;
44304;SDS011;30019;50.576;8.568;2023-02-28T07:18:28;5.53;;;3.25;;
44304;SDS011;30019;50.576;8.568;2023-02-28T07:20:54;5.12;;;2.78;;
44304;SDS011;30019;50.576;8.568;2023-02-28T07:23:20;5.45;;;3.42;;
44304;SDS011;30019;50.576;8.568;2023-02-28T07:25:47;4.47;;;3.12;;
44304;SDS011;30019;50.576;8.568;2023-02-28T07:28:13;4.62;;;3.50;;
44304;SDS011;30019;50.576;8.568;2023-02-28T07:30:40;3.80;;;3.40;;
44304;SDS011;30019;50.576;8.568;2023-02-28T07:33:05;4.30;;;3.17;;
44304;SDS011;30019;50.576;8.568;2023-02-28T07:35:31;5.17;;;3.60;;
44304;SDS011;30019;50.576;8.568;2023-02-28T07:38:03;6.15;;;3.42;;
44304;SDS011;30019;50.576;8.568;2023-02-28T07:40:29;4.60;;;2.17;;
44304;SDS011;30019;50.576;8.568;2023-02-28T07:42:55;3.40;;;2.53;;
44304;SDS011;30019;50.576;8.568;2023-02-28T07:45:21;4.15;;;2.85;;
44304;SDS011;30019;50.576;8.568;2023-02-28T07:47:46;6.65;;;3.08;;
44304;SDS011;30019;50.576;8.568;2023-02-28T07:50:13;4.18;;;2.55;;
44304;SDS011;30019;50.576;8.568;2023-02-28T07:52:41;4.25;;;2.65;;
44304;SDS011;30019;50.576;8.568;2023-02-28T07:55:07;4.87;;;3.03;;
44304;SDS011;30019;50.576;8.568;2023-02-28T07:57:34;3.22;;;2.30;;
44304;SDS011;30019;50.576;8.568;2023-02-28T08:00:00;2.33;;;2.00;;
44304;SDS011;30019;50.576;8.568;2023-02-28T08:02:26;4.18;;;2.65;;
44304;SDS011;30019;50.576;8.568;2023-02-28T08:04:51;2.37;;;2.17;;
44304;SDS011;30019;50.576;8.568;2023-02-28T08:07:17;3.95;;;2.65;;
44304;SDS011;30019;50.576;8.568;2023-02-28T08:09:44;2.45;;;2.20;;
44304;SDS011;30019;50.576;8.568;2023-02-28T08:12:10;2.60;;;2.12;;
44304;SDS011;30019;50.576;8.568;2023-02-28T08:14:36;5.25;;;1.90;;
44304;SDS011;30019;50.576;8.568;2023-02-28T08:17:02;5.70;;;2.30;;
44304;SDS011;30019;50.576;8.568;2023-02-28T08:19:29;2.85;;;1.83;;
44304;SDS011;30019;50.576;8.568;2023-02-28T08:21:55;2.50;;;1.83;;
44304;SDS011;30019;50.576;8.568;2023-02-28T08:24:21;5.57;;;2.00;;
44304;SDS011;30019;50.576;8.568;2023-02-28T08:26:46;2.75;;;1.65;;
44304;SDS011;30019;50.576;8.568;2023-02-28T08:29:12;4.55;;;2.30;;
44304;SDS011;30019;50.576;8.568;2023-02-28T08:31:44;2.22;;;1.45;;
44304;SDS011;30019;50.576;8.568;2023-02-28T08:34:11;3.97;;;2.10;;
44304;SDS011;30019;50.576;8.568;2023-02-28T08:36:49;3.23;;;2.30;;
44304;SDS011;30019;50.576;8.568;2023-02-28T08:39:23;4.05;;;1.77;;
44304;SDS011;30019;50.576;8.568;2023-02-28T08:41:49;2.22;;;1.27;;
44304;SDS011;30019;50.576;8.568;2023-02-28T08:44:15;4.18;;;1.95;;
44304;SDS011;30019;50.576;8.568;2023-02-28T08:46:41;5.28;;;1.60;;
44304;SDS011;30019;50.576;8.568;2023-02-28T08:49:06;2.10;;;1.90;;
44304;SDS011;30019;50.576;8.568;2023-02-28T08:51:32;3.35;;;2.00;;
44304;SDS011;30019;50.576;8.568;2023-02-28T08:53:58;2.95;;;2.03;;
44304;SDS011;30019;50.576;8.568;2023-02-28T08:56:25;2.22;;;1.92;;
44304;SDS011;30019;50.576;8.568;2023-02-28T08:58:53;3.35;;;2.20;;
44304;SDS011;30019;50.576;8.568;2023-02-28T09:01:21;3.10;;;1.90;;
44304;SDS011;30019;50.576;8.568;2023-02-28T09:03:49;4.30;;;2.20;;
44304;SDS011;30019;50.576;8.568;2023-02-28T09:06:16;3.28;;;1.62;;
44304;SDS011;30019;50.576;8.568;2023-02-28T09:08:43;1.30;;;1.20;;
44304;SDS011;30019;50.576;8.568;2023-02-28T09:11:09;2.47;;;1.67;;
44304;SDS011;30019;50.576;8.568;2023-02-28T09:13:36;6.93;;;1.55;;
44304;SDS011;30019;50.576;8.568;2023-02-28T09:16:03;2.62;;;1.75;;
44304;SDS011;30019;50.576;8.568;2023-02-28T09:18:33;7.80;;;1.37;;
44304;SDS011;30019;50.576;8.568;2023-02-28T09:21:02;2.00;;;1.77;;
44304;SDS011;30019;50.576;8.568;2023-02-28T09:23:35;2.87;;;1.55;;
44304;SDS011;30019;50.576;8.568;2023-02-28T09:26:03;1.98;;;1.62;;
44304;SDS011;30019;50.576;8.568;2023-02-28T09:28:29;2.60;;;1.95;;
44304;SDS011;30019;50.576;8.568;2023-02-28T09:30:55;2.92;;;1.55;;
44304;SDS011;30019;50.576;8.568;2023-02-28T09:33:22;3.67;;;1.85;;
44304;SDS011;30019;50.576;8.568;2023-02-28T09:35:48;2.58;;;1.83;;
44304;SDS011;30019;50.576;8.568;2023-02-28T09:38:14;2.72;;;2.03;;
44304;SDS011;30019;50.576;8.568;2023-02-28T09:40:48;2.25;;;1.62;;
44304;SDS011;30019;50.576;8.568;2023-02-28T09:43:16;2.17;;;1.95;;
44304;SDS011;30019;50.576;8.568;2023-02-28T09:45:47;2.45;;;1.48;;
44304;SDS011;30019;50.576;8.568;2023-02-28T09:48:34;2.65;;;1.75;;
44304;SDS011;30019;50.576;8.568;2023-02-28T09:51:05;2.03;;;1.55;;
44304;SDS011;30019;50.576;8.568;2023-02-28T09:53:52;2.53;;;2.08;;
44304;SDS011;30019;50.576;8.568;2023-02-28T09:56:23;2.30;;;1.60;;
44304;SDS011;30019;50.576;8.568;2023-02-28T10:04:51;4.62;;;2.40;;
44304;SDS011;30019;50.576;8.568;2023-02-28T10:10:04;2.78;;;1.90;;
44304;SDS011;30019;50.576;8.568;2023-02-28T10:12:39;2.30;;;1.42;;
44304;SDS011;30019;50.576;8.568;2023-02-28T10:18:46;2.92;;;2.03;;
44304;SDS011;30019;50.576;8.568;2023-02-28T10:21:37;3.67;;;2.03;;
44304;SDS011;30019;50.576;8.568;2023-02-28T10:28:13;1.95;;;1.85;;
44304;SDS011;30019;50.576;8.568;2023-02-28T10:31:08;2.22;;;1.55;;
44304;SDS011;30019;50.576;8.568;2023-02-28T10:33:42;1.90;;;1.80;;
44304;SDS011;30019;50.576;8.568;2023-02-28T10:39:39;2.60;;;2.30;;
44304;SDS011;30019;50.576;8.568;2023-02-28T10:42:18;4.33;;;2.80;;
44304;SDS011;30019;50.576;8.568;2023-02-28T10:50:42;2.97;;;1.98;;
44304;SDS011;30019;50.576;8.568;2023-02-28T10:53:34;5.47;;;2.53;;
44304;SDS011;30019;50.576;8.568;2023-02-28T10:56:30;3.78;;;2.30;;
44304;SDS011;30019;50.576;8.568;2023-02-28T11:05:37;2.55;;;1.95;;
44304;SDS011;30019;50.576;8.568;2023-02-28T11:08:10;3.70;;;2.35;;
44304;SDS011;30019;50.576;8.568;2023-02-28T11:10:47;4.53;;;2.60;;
44304;SDS011;30019;50.576;8.568;2023-02-28T11:13:21;2.30;;;2.10;;
44304;SDS011;30019;50.576;8.568;2023-02-28T11:16:00;9.15;;;5.30;;
44304;SDS011;30019;50.576;8.568;2023-02-28T11:18:30;4.60;;;2.17;;
44304;SDS011;30019;50.576;8.568;2023-02-28T11:21:18;2.95;;;2.40;;
44304;SDS011;30019;50.576;8.568;2023-02-28T11:26:51;3.92;;;2.40;;
44304;SDS011;30019;50.576;8.568;2023-02-28T11:29:19;3.30;;;2.42;;
44304;SDS011;30019;50.576;8.568;2023-02-28T11:34:41;4.18;;;2.67;;
44304;SDS011;30019;50.576;8.568;2023-02-28T11:37:12;3.97;;;2.37;;
44304;SDS011;30019;50.576;8.568;2023-02-28T11:39:43;3.87;;;2.72;;
44304;SDS011;30019;50.576;8.568;2023-02-28T11:45:18;3.65;;;2.80;;
44304;SDS011;30019;50.576;8.568;2023-02-28T11:47:56;4.07;;;2.72;;
44304;SDS011;30019;50.576;8.568;2023-02-28T11:50:52;4.50;;;3.28;;
44304;SDS011;30019;50.576;8.568;2023-02-28T11:56:26;2.85;;;2.30;;
44304;SDS011;30019;50.576;8.568;2023-02-28T12:07:42;5.82;;;3.33;;
44304;SDS011;30019;50.576;8.568;2023-02-28T12:10:29;5.25;;;3.00;;
44304;SDS011;30019;50.576;8.568;2023-02-28T12:21:21;5.80;;;3.50;;
44304;SDS011;30019;50.576;8.568;2023-02-28T12:26:51;4.35;;;3.55;;
44304;SDS011;30019;50.576;8.568;2023-02-28T12:29:30;5.12;;;3.80;;
44304;SDS011;30019;50.576;8.568;2023-02-28T12:32:37;6.60;;;3.00;;
44304;SDS011;30019;50.576;8.568;2023-02-28T12:35:22;5.93;;;3.10;;
44304;SDS011;30019;50.576;8.568;2023-02-28T12:37:49;7.55;;;3.97;;
44304;SDS011;30019;50.576;8.568;2023-02-28T12:40:32;5.22;;;3.40;;
44304;SDS011;30019;50.576;8.568;2023-02-28T12:43:05;3.90;;;2.92;;
44304;SDS011;30019;50.576;8.568;2023-02-28T12:45:42;6.37;;;2.95;;
44304;SDS011;30019;50.576;8.568;2023-02-28T12:48:09;2.80;;;2.58;;
44304;SDS011;30019;50.576;8.568;2023-02-28T12:50:40;5.47;;;3.60;;
44304;SDS011;30019;50.576;8.568;2023-02-28T12:53:08;6.45;;;2.92;;
44304;SDS011;30019;50.576;8.568;2023-02-28T12:55:48;5.18;;;3.42;;
44304;SDS011;30019;50.576;8.568;2023-02-28T13:00:58;5.32;;;3.37;;
44304;SDS011;30019;50.576;8.568;2023-02-28T13:03:42;4.12;;;3.08;;
44304;SDS011;30019;50.576;8.568;2023-02-28T13:11:49;5.75;;;4.25;;
44304;SDS011;30019;50.576;8.568;2023-02-28T13:17:01;4.62;;;2.70;;
44304;SDS011;30019;50.576;8.568;2023-02-28T13:19:37;4.87;;;3.12;;
44304;SDS011;30019;50.576;8.568;2023-02-28T13:22:17;6.55;;;3.17;;
44304;SDS011;30019;50.576;8.568;2023-02-28T13:28:10;4.70;;;3.15;;
44304;SDS011;30019;50.576;8.568;2023-02-28T13:33:27;5.68;;;3.65;;
44304;SDS011;30019;50.576;8.568;2023-02-28T13:36:32;7.43;;;2.72;;
44304;SDS011;30019;50.576;8.568;2023-02-28T13:39:02;4.35;;;2.53;;
44304;SDS011;30019;50.576;8.568;2023-02-28T13:41:48;2.92;;;2.62;;
44304;SDS011;30019;50.576;8.568;2023-02-28T13:44:15;4.37;;;2.80;;
44304;SDS011;30019;50.576;8.568;2023-02-28T13:49:23;5.10;;;2.72;;
44304;SDS011;30019;50.576;8.568;2023-02-28T14:05:34;4.87;;;2.87;;
44304;SDS011;30019;50.576;8.568;2023-02-28T14:08:04;5.07;;;3.25;;
44304;SDS011;30019;50.576;8.568;2023-02-28T14:10:37;6.23;;;3.57;;
44304;SDS011;30019;50.576;8.568;2023-02-28T14:16:10;4.55;;;3.40;;
44304;SDS011;30019;50.576;8.568;2023-02-28T14:18:40;5.80;;;4.10;;
44304;SDS011;30019;50.576;8.568;2023-02-28T14:21:31;6.62;;;3.87;;
44304;SDS011;30019;50.576;8.568;2023-02-28T14:29:29;6.45;;;3.97;;
44304;SDS011;30019;50.576;8.568;2023-02-28T14:35:35;5.07;;;3.30;;
44304;SDS011;30019;50.576;8.568;2023-02-28T14:38:05;3.83;;;3.03;;
44304;SDS011;30019;50.576;8.568;2023-02-28T14:40:38;4.93;;;3.40;;
44304;SDS011;30019;50.576;8.568;2023-02-28T14:43:06;3.47;;;3.17;;
44304;SDS011;30019;50.576;8.568;2023-02-28T14:45:52;3.83;;;3.17;;
44304;SDS011;30019;50.576;8.568;2023-02-28T14:48:21;4.80;;;3.60;;
44304;SDS011;30019;50.576;8.568;2023-02-28T14:50:49;5.72;;;3.80;;
44304;SDS011;30019;50.576;8.568;2023-02-28T14:53:18;3.58;;;3.28;;
44304;SDS011;30019;50.576;8.568;2023-02-28T14:55:46;5.25;;;3.40;;
44304;SDS011;30019;50.576;8.568;2023-02-28T15:00:55;4.25;;;2.70;;
44304;SDS011;30019;50.576;8.568;2023-02-28T15:03:33;7.70;;;4.05;;
44304;SDS011;30019;50.576;8.568;2023-02-28T15:06:01;6.18;;;3.42;;
44304;SDS011;30019;50.576;8.568;2023-02-28T15:08:48;7.82;;;4.07;;
44304;SDS011;30019;50.576;8.568;2023-02-28T15:11:31;7.47;;;4.03;;
44304;SDS011;30019;50.576;8.568;2023-02-28T15:13:57;3.30;;;2.85;;
44304;SDS011;30019;50.576;8.568;2023-02-28T15:16:28;6.72;;;4.32;;
44304;SDS011;30019;50.576;8.568;2023-02-28T15:21:25;4.80;;;3.37;;
44304;SDS011;30019;50.576;8.568;2023-02-28T15:24:05;5.62;;;3.47;;
44304;SDS011;30019;50.576;8.568;2023-02-28T15:26:41;5.37;;;3.42;;
44304;SDS011;30019;50.576;8.568;2023-02-28T15:29:15;5.97;;;3.55;;
44304;SDS011;30019;50.576;8.568;2023-02-28T15:31:46;6.55;;;3.15;;
44304;SDS011;30019;50.576;8.568;2023-02-28T15:34:22;5.82;;;3.35;;
44304;SDS011;30019;50.576;8.568;2023-02-28T15:36:53;6.25;;;3.47;;
44304;SDS011;30019;50.576;8.568;2023-02-28T15:39:20;5.32;;;3.65;;
44304;SDS011;30019;50.576;8.568;2023-02-28T15:41:46;7.37;;;4.47;;
44304;SDS011;30019;50.576;8.568;2023-02-28T15:44:17;5.30;;;3.80;;
44304;SDS011;30019;50.576;8.568;2023-02-28T15:46:43;6.32;;;3.90;;
44304;SDS011;30019;50.576;8.568;2023-02-28T15:49:23;9.00;;;4.15;;
44304;SDS011;30019;50.576;8.568;2023-02-28T15:51:50;7.55;;;4.00;;
44304;SDS011;30019;50.576;8.568;2023-02-28T15:54:23;4.78;;;3.60;;
44304;SDS011;30019;50.576;8.568;2023-02-28T15:56:53;6.22;;;4.05;;
44304;SDS011;30019;50.576;8.568;2023-02-28T15:59:22;6.20;;;3.60;;
44304;SDS011;30019;50.576;8.568;2023-02-28T16:02:13;5.20;;;3.72;;
44304;SDS011;30019;50.576;8.568;2023-02-28T16:05:01;7.50;;;3.67;;
44304;SDS011;30019;50.576;8.568;2023-02-28T16:07:32;7.60;;;4.37;;
44304;SDS011;30019;50.576;8.568;2023-02-28T16:10:03;12.77;;;3.80;;
44304;SDS011;30019;50.576;8.568;2023-02-28T16:12:30;7.65;;;4.22;;
44304;SDS011;30019;50.576;8.568;2023-02-28T16:14:59;7.10;;;4.00;;
44304;SDS011;30019;50.576;8.568;2023-02-28T16:17:29;10.70;;;4.18;;
44304;SDS011;30019;50.576;8.568;2023-02-28T16:19:57;7.32;;;4.10;;
44304;SDS011;30019;50.576;8.568;2023-02-28T16:22:24;7.62;;;4.80;;
44304;SDS011;30019;50.576;8.568;2023-02-28T16:24:50;8.73;;;4.95;;
44304;SDS011;30019;50.576;8.568;2023-02-28T16:27:17;9.18;;;4.45;;
44304;SDS011;30019;50.576;8.568;2023-02-28T16:29:51;27.87;;;10.40;;
44304;SDS011;30019;50.576;8.568;2023-02-28T16:32:18;30.05;;;10.07;;
44304;SDS011;30019;50.576;8.568;2023-02-28T16:34:44;18.20;;;8.30;;
44304;SDS011;30019;50.576;8.568;2023-02-28T16:37:11;8.65;;;5.00;;
44304;SDS011;30019;50.576;8.568;2023-02-28T16:39:38;8.60;;;5.05;;
44304;SDS011;30019;50.576;8.568;2023-02-28T16:42:04;11.85;;;5.28;;
44304;SDS011;30019;50.576;8.568;2023-02-28T16:44:31;9.65;;;4.47;;
44304;SDS011;30019;50.576;8.568;2023-02-28T16:46:59;20.25;;;8.50;;
44304;SDS011;30019;50.576;8.568;2023-02-28T16:49:26;10.07;;;4.90;;
44304;SDS011;30019;50.576;8.568;2023-02-28T16:51:51;7.28;;;4.25;;
44304;SDS011;30019;50.576;8.568;2023-02-28T16:54:17;12.00;;;6.30;;
44304;SDS011;30019;50.576;8.568;2023-02-28T16:56:44;11.75;;;6.30;;
44304;SDS011;30019;50.576;8.568;2023-02-28T16:59:11;12.37;;;6.45;;
44304;SDS011;30019;50.576;8.568;2023-02-28T17:01:40;7.78;;;4.85;;
44304;SDS011;30019;50.576;8.568;2023-02-28T17:04:05;8.63;;;4.20;;
44304;SDS011;30019;50.576;8.568;2023-02-28T17:06:31;12.10;;;5.47;;
44304;SDS011;30019;50.576;8.568;2023-02-28T17:08:57;7.03;;;3.85;;
44304;SDS011;30019;50.576;8.568;2023-02-28T17:11:24;7.03;;;3.70;;
44304;SDS011;30019;50.576;8.568;2023-02-28T17:13:50;8.52;;;4.35;;
44304;SDS011;30019;50.576;8.568;2023-02-28T17:18:51;5.82;;;4.10;;
44304;SDS011;30019;50.576;8.568;2023-02-28T17:21:19;7.53;;;4.53;;
44304;SDS011;30019;50.576;8.568;2023-02-28T17:23:44;10.27;;;4.43;;
44304;SDS011;30019;50.576;8.568;2023-02-28T17:26:13;8.77;;;4.72;;
44304;SDS011;30019;50.576;8.568;2023-02-28T17:28:40;7.60;;;4.35;;
44304;SDS011;30019;50.576;8.568;2023-02-28T17:31:07;7.70;;;4.30;;
44304;SDS011;30019;50.576;8.568;2023-02-28T17:33:33;5.32;;;4.07;;
44304;SDS011;30019;50.576;8.568;2023-02-28T17:35:58;6.62;;;4.12;;
44304;SDS011;30019;50.576;8.568;2023-02-28T17:38:24;7.97;;;3.95;;